createdAt,value
2023-05-05T00:01:04.094Z,101047.41
2023-05-05T00:03:34.305Z,101050.97
2023-05-05T00:06:03.155Z,101054.56
2023-05-05T00:08:32.143Z,101052.88
2023-05-05T00:11:00.840Z,101061.69
2023-05-05T00:13:29.525Z,101061.63
2023-05-05T00:15:58.277Z,101052.84
2023-05-05T00:18:29.580Z,101055.53
2023-05-05T00:20:58.290Z,101039.72
2023-05-05T00:23:27.104Z,101047.69
2023-05-05T00:25:56.007Z,101043.44
2023-05-05T00:28:24.994Z,101038.25
2023-05-05T00:30:53.723Z,101035.69
2023-05-05T00:33:22.493Z,101031.34
2023-05-05T00:35:52.714Z,101026.94
2023-05-05T00:38:21.496Z,101033.13
2023-05-05T00:40:50.294Z,101027.81
2023-05-05T00:43:19.047Z,101029.50
2023-05-05T00:45:48.202Z,101033.91
2023-05-05T00:48:18.943Z,101031.28
2023-05-05T00:50:47.724Z,101030.41
2023-05-05T00:53:17.842Z,101025.03
2023-05-05T00:55:46.654Z,101027.75
2023-05-05T00:58:15.535Z,101026.94
2023-05-05T01:00:44.570Z,101030.50
2023-05-05T01:03:15.454Z,101026.16
2023-05-05T01:05:54.112Z,101029.69
2023-05-05T01:08:43.216Z,101022.66
2023-05-05T01:11:18.238Z,101033.28
2023-05-05T01:13:58.067Z,101036.94
2023-05-05T01:16:28.784Z,101023.75
2023-05-05T01:19:05.844Z,101019.41
2023-05-05T01:21:40.212Z,101020.34
2023-05-05T01:24:44.956Z,101025.69
2023-05-05T01:27:41.024Z,101028.38
2023-05-05T01:30:26.798Z,101027.53
2023-05-05T01:33:05.015Z,101028.44
2023-05-05T01:35:41.617Z,101023.22
2023-05-05T01:38:16.274Z,101026.75
2023-05-05T01:40:49.204Z,101014.50
2023-05-05T01:43:21.349Z,101024.09
2023-05-05T01:45:52.703Z,101027.59
2023-05-05T01:48:26.386Z,101025.81
2023-05-05T01:50:55.359Z,101031.03
2023-05-05T01:53:27.437Z,101033.66
2023-05-05T01:55:57.645Z,101029.28
2023-05-05T01:58:27.824Z,101021.34
2023-05-05T02:00:58.895Z,101025.72
2023-05-05T02:03:31.469Z,101029.28
2023-05-05T02:06:02.033Z,101027.53
2023-05-05T02:08:32.612Z,101025.75
2023-05-05T02:11:02.474Z,101024.88
2023-05-05T02:13:33.469Z,101026.63
2023-05-05T02:16:04.210Z,101029.28
2023-05-05T02:18:36.683Z,101029.25
2023-05-05T02:21:05.852Z,101025.75
2023-05-05T02:23:36.310Z,101021.41
2023-05-05T02:26:08.882Z,101016.03
2023-05-05T02:28:42.129Z,101014.31
2023-05-05T02:31:13.333Z,101014.31
2023-05-05T02:33:46.899Z,101023.13
2023-05-05T02:36:20.361Z,101013.44
2023-05-05T02:39:00.213Z,101017.84
2023-05-05T02:41:32.535Z,101018.72
2023-05-05T02:44:08.390Z,101020.41
2023-05-05T02:46:39.865Z,101013.31
2023-05-05T02:49:10.070Z,101008.09
2023-05-05T02:51:40.584Z,101009.03
2023-05-05T02:54:17.591Z,101010.84
2023-05-05T02:56:50.972Z,101014.38
2023-05-05T02:59:32.056Z,101017.03
2023-05-05T03:02:15.188Z,101013.56
2023-05-05T03:04:49.703Z,101010.91
2023-05-05T03:07:27.577Z,101011.84
2023-05-05T03:10:06.228Z,101013.59
2023-05-05T03:12:45.328Z,101016.19
2023-05-05T03:15:26.425Z,101014.38
2023-05-05T03:17:57.618Z,101020.56
2023-05-05T03:20:28.480Z,101020.59
2023-05-05T03:23:01.997Z,101016.19
2023-05-05T03:25:44.165Z,101024.16
2023-05-05T03:28:17.377Z,101015.44
2023-05-05T03:30:46.529Z,101024.25
2023-05-05T03:33:17.983Z,101025.16
2023-05-05T03:35:51.050Z,101022.53
2023-05-05T03:38:21.894Z,101024.31
2023-05-05T03:40:51.937Z,101027.84
2023-05-05T03:43:23.531Z,101034.00
2023-05-05T03:45:52.369Z,101026.97
2023-05-05T03:48:21.531Z,101026.09
2023-05-05T03:50:54.011Z,101032.25
2023-05-05T03:53:26.647Z,101026.97
2023-05-05T03:55:58.997Z,101027.00
2023-05-05T03:58:28.044Z,101027.88
2023-05-05T04:00:56.858Z,101034.00
2023-05-05T04:03:26.606Z,101028.75
2023-05-05T04:05:56.898Z,101037.50
2023-05-05T04:08:26.032Z,101031.34
2023-05-05T04:10:54.797Z,101026.03
2023-05-05T04:13:24.411Z,101027.75
2023-05-05T04:15:53.765Z,101037.38
2023-05-05T04:18:23.200Z,101035.63
2023-05-05T04:20:52.561Z,101036.47
2023-05-05T04:23:23.087Z,101034.66
2023-05-05T04:25:52.361Z,101033.72
2023-05-05T04:28:22.129Z,101035.44
2023-05-05T04:30:51.387Z,101038.91
2023-05-05T04:33:20.469Z,101041.53
2023-05-05T04:35:51.090Z,101045.94
2023-05-05T04:38:22.503Z,101040.59
2023-05-05T04:40:51.287Z,101049.34
2023-05-05T04:43:20.198Z,101048.34
2023-05-05T04:45:55.242Z,101050.81
2023-05-05T04:48:27.082Z,101056.75
2023-05-05T04:50:55.906Z,101053.03
2023-05-05T04:53:26.471Z,101056.41
2023-05-05T04:55:56.206Z,101058.88
2023-05-05T04:58:26.814Z,101066.63
2023-05-05T05:01:08.190Z,101070.72
2023-05-05T05:04:33.605Z,101078.38
2023-05-05T05:07:45.942Z,101081.66
2023-05-05T05:10:22.857Z,101081.56
2023-05-05T05:13:04.245Z,101077.00
2023-05-05T05:15:37.566Z,101082.91
2023-05-05T05:18:21.911Z,101090.72
2023-05-05T05:20:54.127Z,101087.06
2023-05-05T05:23:53.365Z,101096.88
2023-05-05T05:26:26.705Z,101090.09
2023-05-05T05:29:00.133Z,101089.56
2023-05-05T05:31:36.746Z,101095.91
2023-05-05T05:34:05.864Z,101092.41
2023-05-05T05:36:36.892Z,101096.81
2023-05-05T05:39:11.209Z,101092.41
2023-05-05T05:41:41.937Z,101093.38
2023-05-05T05:44:11.022Z,101090.75
2023-05-05T05:46:40.158Z,101100.34
2023-05-05T05:49:09.136Z,101094.16
2023-05-05T05:51:38.417Z,101094.03
2023-05-05T05:54:07.289Z,101091.84
2023-05-05T05:56:36.408Z,101100.25
2023-05-05T05:59:08.128Z,101099.00
2023-05-05T06:01:37.947Z,101093.97
2023-05-05T06:04:06.906Z,101088.50
2023-05-05T06:06:35.941Z,101100.13
2023-05-05T06:09:04.925Z,101102.34
2023-05-05T06:11:38.195Z,101108.78
2023-05-05T06:14:11.565Z,101101.09
2023-05-05T06:16:40.602Z,101104.72
2023-05-05T06:19:13.912Z,101101.94
2023-05-05T06:21:42.692Z,101099.94
2023-05-05T06:24:11.960Z,101101.44
2023-05-05T06:26:40.845Z,101100.13
2023-05-05T06:29:12.355Z,101105.69
2023-05-05T06:31:41.273Z,101099.69
2023-05-05T06:34:10.041Z,101100.09
2023-05-05T06:36:38.825Z,101122.13
2023-05-05T06:39:07.798Z,101108.22
2023-05-05T06:41:36.668Z,101108.75
2023-05-05T06:44:06.014Z,101113.63
2023-05-05T06:46:36.385Z,101117.53
2023-05-05T06:49:05.156Z,101121.94
2023-05-05T06:51:33.932Z,101114.31
2023-05-05T06:54:02.677Z,101110.66
2023-05-05T06:56:32.693Z,101117.03
2023-05-05T06:59:01.572Z,101115.25
2023-05-05T07:01:30.244Z,101107.28
2023-05-05T07:04:00.393Z,101107.00
2023-05-05T07:06:29.337Z,101102.31
2023-05-05T07:08:58.038Z,101098.56
2023-05-05T07:11:26.797Z,101103.44
2023-05-05T07:13:55.538Z,101111.63
2023-05-05T07:16:25.442Z,101110.25
2023-05-05T07:18:54.227Z,101104.91
2023-05-05T07:21:24.373Z,101093.13
2023-05-05T07:23:53.490Z,101095.34
2023-05-05T07:26:22.229Z,101088.84
2023-05-05T07:28:52.031Z,101098.94
2023-05-05T07:31:21.979Z,101096.78
2023-05-05T07:33:50.770Z,101089.56
2023-05-05T07:36:19.867Z,101098.00
2023-05-05T07:38:49.963Z,101101.78
2023-05-05T07:41:19.324Z,101100.69
2023-05-05T07:43:48.063Z,101112.50
2023-05-05T07:46:16.874Z,101117.25
2023-05-05T07:48:45.716Z,101115.66
2023-05-05T07:51:14.408Z,101110.66
2023-05-05T07:53:43.363Z,101113.97
2023-05-05T07:56:13.470Z,101114.88
2023-05-05T07:58:42.236Z,101109.28
2023-05-05T08:01:12.810Z,101113.75
2023-05-05T08:03:41.746Z,101119.75
2023-05-05T08:06:11.394Z,101125.88
2023-05-05T08:08:40.204Z,101119.25
2023-05-05T08:11:08.935Z,101126.19
2023-05-05T08:13:39.262Z,101117.38
2023-05-05T08:16:08.608Z,101123.50
2023-05-05T08:18:38.440Z,101135.41
2023-05-05T08:21:07.708Z,101123.56
2023-05-05T08:23:37.669Z,101089.47
2023-05-05T08:26:07.757Z,101085.06
2023-05-05T08:28:38.217Z,101119.63
2023-05-05T08:31:07.832Z,101121.19
2023-05-05T08:33:36.579Z,101121.66
2023-05-05T08:36:05.867Z,101127.09
2023-05-05T08:38:34.653Z,101117.28
2023-05-05T08:41:03.994Z,101117.94
2023-05-05T08:43:33.941Z,101115.75
2023-05-05T08:46:05.624Z,101121.72
2023-05-05T08:48:37.856Z,101122.31
2023-05-05T08:51:08.152Z,101123.00
2023-05-05T08:53:47.801Z,101125.34
2023-05-05T08:56:17.338Z,101127.28
2023-05-05T08:58:48.314Z,101052.03
2023-05-05T09:01:19.175Z,101124.78
2023-05-05T09:03:48.179Z,101117.09
2023-05-05T09:06:17.119Z,101117.31
2023-05-05T09:08:46.314Z,101123.47
2023-05-05T09:11:15.534Z,101122.53
2023-05-05T09:13:44.628Z,101112.72
2023-05-05T09:16:13.486Z,101109.78
2023-05-05T09:18:45.525Z,101104.78
2023-05-05T09:21:24.735Z,101101.78
2023-05-05T09:24:12.818Z,101103.41
2023-05-05T09:26:44.863Z,101104.00
2023-05-05T09:29:19.692Z,101111.66
2023-05-05T09:32:05.613Z,101099.41
2023-05-05T09:34:37.180Z,101095.50
2023-05-05T09:37:06.404Z,101099.31
2023-05-05T09:39:35.288Z,101099.72
2023-05-05T09:42:04.542Z,101095.03
2023-05-05T09:44:37.754Z,101105.34
2023-05-05T09:47:18.171Z,101094.16
2023-05-05T09:50:02.732Z,101106.06
2023-05-05T09:52:32.055Z,101103.56
2023-05-05T09:55:00.860Z,101106.72
2023-05-05T09:57:31.652Z,101104.03
2023-05-05T10:00:01.820Z,101095.84
2023-05-05T10:02:37.692Z,101100.81
2023-05-05T10:05:11.123Z,101112.06
2023-05-05T10:07:41.302Z,101095.69
2023-05-05T10:10:12.388Z,101093.66
2023-05-05T10:12:42.204Z,101100.41
2023-05-05T10:15:12.445Z,101095.09
2023-05-05T10:18:02.278Z,101094.28
2023-05-05T10:20:34.245Z,101081.13
2023-05-05T10:23:09.229Z,101091.53
2023-05-05T10:25:44.749Z,101089.09
2023-05-05T10:28:22.260Z,101075.38
2023-05-05T10:30:57.915Z,101048.25
2023-05-05T10:33:37.392Z,101083.19
2023-05-05T10:36:08.412Z,101079.50
2023-05-05T10:38:38.508Z,101070.56
2023-05-05T10:41:07.917Z,101066.75
2023-05-05T10:43:37.079Z,101062.97
2023-05-05T10:46:06.662Z,101054.91
2023-05-05T10:48:40.891Z,101065.19
2023-05-05T10:51:38.525Z,101059.44
2023-05-05T10:54:18.097Z,101053.94
2023-05-05T10:56:48.179Z,101065.16
2023-05-05T10:59:42.719Z,101049.72
2023-05-05T11:02:26.382Z,101042.41
2023-05-05T11:05:12.266Z,101059.38
2023-05-05T11:07:43.275Z,101052.28
2023-05-05T11:10:14.052Z,101049.34
2023-05-05T11:13:21.169Z,101046.34
2023-05-05T11:15:52.139Z,101051.00
2023-05-05T11:18:33.964Z,101031.81
2023-05-05T11:21:16.953Z,101041.06
2023-05-05T11:23:49.138Z,101037.00
2023-05-05T11:26:19.553Z,101031.78
2023-05-05T11:29:00.566Z,101029.97
2023-05-05T11:31:30.657Z,101027.13
2023-05-05T11:34:36.149Z,101024.72
2023-05-05T11:37:08.908Z,101023.88
2023-05-05T11:39:51.083Z,101023.22
2023-05-05T11:42:25.761Z,101023.72
2023-05-05T11:44:55.430Z,101019.13
2023-05-05T11:47:32.182Z,101015.13
2023-05-05T11:50:21.692Z,101017.66
2023-05-05T11:52:50.730Z,101018.03
2023-05-05T11:55:24.582Z,101025.44
2023-05-05T11:57:54.176Z,101009.97
2023-05-05T12:00:33.883Z,101013.09
2023-05-05T12:03:03.251Z,101015.69
2023-05-05T12:05:34.843Z,101018.84
2023-05-05T12:08:05.577Z,101016.91
2023-05-05T12:10:35.770Z,101014.56
2023-05-05T12:13:04.542Z,101013.41
2023-05-05T12:15:34.291Z,101003.59
2023-05-05T12:18:03.562Z,101002.75
2023-05-05T12:20:36.822Z,100988.53
2023-05-05T12:23:05.637Z,100994.66
2023-05-05T12:25:39.931Z,100986.88
2023-05-05T12:28:09.787Z,100983.13
2023-05-05T12:30:38.760Z,100979.91
2023-05-05T12:33:09.298Z,100981.13
2023-05-05T12:35:38.268Z,100968.56
2023-05-05T12:38:07.465Z,100969.84
2023-05-05T12:40:52.946Z,100971.59
2023-05-05T12:43:27.165Z,100964.34
2023-05-05T12:46:07.242Z,100970.59
2023-05-05T12:48:38.171Z,100958.91
2023-05-05T12:51:17.789Z,100958.81
2023-05-05T12:53:47.549Z,100958.94
2023-05-05T12:56:37.558Z,100942.97
2023-05-05T12:59:07.812Z,100948.28
2023-05-05T13:01:37.860Z,100943.34
2023-05-05T13:04:14.422Z,100947.34
2023-05-05T13:06:44.252Z,100959.78
2023-05-05T13:09:25.268Z,100953.25
2023-05-05T13:11:55.687Z,100953.06
2023-05-05T13:14:24.930Z,100955.94
2023-05-05T13:16:54.009Z,100958.44
2023-05-05T13:19:24.899Z,100954.88
2023-05-05T13:21:53.942Z,100947.06
2023-05-05T13:24:31.602Z,100934.94
2023-05-05T13:27:05.660Z,100935.59
2023-05-05T13:29:34.545Z,100925.06
2023-05-05T13:32:03.411Z,100930.63
2023-05-05T13:34:32.188Z,100919.44
2023-05-05T13:37:00.983Z,100921.50
2023-05-05T13:39:29.730Z,100913.41
2023-05-05T13:41:58.483Z,100908.03
2023-05-05T13:44:28.608Z,100901.38
2023-05-05T13:46:57.719Z,100904.06
2023-05-05T13:49:27.117Z,100889.41
2023-05-05T13:51:56.305Z,100902.22
2023-05-05T13:54:25.295Z,100887.38
2023-05-05T13:56:54.148Z,100883.03
2023-05-05T13:59:23.062Z,100876.56
2023-05-05T14:01:53.229Z,100867.56
2023-05-05T14:04:22.092Z,100867.66
2023-05-05T14:06:50.936Z,100872.63
2023-05-05T14:09:19.759Z,100858.50
2023-05-05T14:11:48.542Z,100864.63
2023-05-05T14:14:17.941Z,100867.72
2023-05-05T14:16:49.870Z,100858.97
2023-05-05T14:19:20.420Z,100866.97
2023-05-05T14:21:49.188Z,100870.66
2023-05-05T14:24:17.973Z,100865.06
2023-05-05T14:26:46.826Z,100867.59
2023-05-05T14:29:15.577Z,100877.16
2023-05-05T14:31:44.343Z,100871.16
2023-05-05T14:34:13.100Z,100883.19
2023-05-05T14:36:43.221Z,100877.84
2023-05-05T14:39:11.956Z,100869.84
2023-05-05T14:41:40.751Z,100866.69
2023-05-05T14:44:09.828Z,100869.19
2023-05-05T14:46:38.882Z,100859.66
2023-05-05T14:49:07.642Z,100868.84
2023-05-05T14:51:36.455Z,100863.38
2023-05-05T14:54:14.288Z,100855.13
2023-05-05T14:56:49.509Z,100857.50
2023-05-05T14:59:18.482Z,100851.63
2023-05-05T15:01:48.245Z,100859.69
2023-05-05T15:04:17.079Z,100850.56
2023-05-05T15:06:45.899Z,100853.94
2023-05-05T15:09:18.092Z,100848.53
2023-05-05T15:11:47.234Z,100838.47
2023-05-05T15:14:16.070Z,100846.19
2023-05-05T15:16:46.716Z,100846.31
2023-05-05T15:19:15.578Z,100835.63
2023-05-05T15:21:44.324Z,100832.19
2023-05-05T15:24:16.322Z,100844.97
2023-05-05T15:26:45.096Z,100838.09
2023-05-05T15:29:13.993Z,100847.19
2023-05-05T15:31:43.382Z,100838.84
2023-05-05T15:34:12.174Z,100835.13
2023-05-05T15:36:40.978Z,100827.03
2023-05-05T15:39:09.812Z,100825.41
2023-05-05T15:41:40.046Z,100842.25
2023-05-05T15:44:09.045Z,100842.75
2023-05-05T15:46:37.960Z,100830.59
2023-05-05T15:49:06.797Z,100832.84
2023-05-05T15:51:35.833Z,100830.38
2023-05-05T15:54:04.695Z,100824.03
2023-05-05T15:56:35.600Z,100816.03
2023-05-05T15:59:07.693Z,100817.91
2023-05-05T16:01:36.920Z,100806.69
2023-05-05T16:04:06.993Z,100804.22
2023-05-05T16:06:35.888Z,100808.03
2023-05-05T16:09:04.825Z,100805.38
2023-05-05T16:11:33.618Z,100803.00
2023-05-05T16:14:02.368Z,100810.00
2023-05-05T16:16:32.631Z,100811.03
2023-05-05T16:19:01.533Z,100810.66
2023-05-05T16:21:30.333Z,100803.25
2023-05-05T16:23:59.187Z,100801.88
2023-05-05T16:26:27.948Z,100797.13
2023-05-05T16:28:56.658Z,100798.50
2023-05-05T16:31:29.794Z,100788.44
2023-05-05T16:34:01.771Z,100784.13
2023-05-05T16:36:39.484Z,100794.78
2023-05-05T16:39:08.372Z,100791.53
2023-05-05T16:41:37.241Z,100786.78
2023-05-05T16:44:06.182Z,100786.50
2023-05-05T16:46:37.533Z,100790.31
2023-05-05T16:49:08.520Z,100786.19
2023-05-05T16:51:37.264Z,100784.59
2023-05-05T16:54:06.107Z,100781.13
2023-05-05T16:56:34.889Z,100786.50
2023-05-05T16:59:03.653Z,100786.59
2023-05-05T17:01:32.527Z,100783.28
2023-05-05T17:04:03.781Z,100783.56
2023-05-05T17:06:50.764Z,100784.88
2023-05-05T17:09:40.231Z,100787.88
2023-05-05T17:12:11.650Z,100783.97
2023-05-05T17:14:54.146Z,100783.78
2023-05-05T17:17:33.501Z,100782.69
2023-05-05T17:20:07.697Z,100784.94
2023-05-05T17:22:41.107Z,100787.78
2023-05-05T17:25:11.888Z,100781.84
2023-05-05T17:27:42.799Z,100774.47
2023-05-05T17:30:12.403Z,100789.03
2023-05-05T17:32:43.184Z,100784.19
2023-05-05T17:35:12.704Z,100788.13
2023-05-05T17:37:45.166Z,100786.00
2023-05-05T17:40:14.305Z,100792.78
2023-05-05T17:42:47.643Z,100779.84
2023-05-05T17:45:16.564Z,100784.66
2023-05-05T17:47:45.641Z,100786.84
2023-05-05T17:50:14.592Z,100788.84
2023-05-05T17:52:47.673Z,100784.00
2023-05-05T17:55:16.424Z,100785.31
2023-05-05T17:58:13.340Z,100787.44
2023-05-05T18:00:42.518Z,100787.03
2023-05-05T18:03:13.446Z,100788.28
2023-05-05T18:05:42.325Z,100789.50
2023-05-05T18:08:15.101Z,100790.56
2023-05-05T18:10:44.281Z,100792.97
2023-05-05T18:13:14.943Z,100791.59
2023-05-05T18:15:43.979Z,100794.13
2023-05-05T18:18:13.030Z,100780.47
2023-05-05T18:20:58.084Z,100779.97
2023-05-05T18:23:28.508Z,100775.97
2023-05-05T18:26:01.788Z,100783.34
2023-05-05T18:28:40.876Z,100782.63
2023-05-05T18:31:12.020Z,100776.81
2023-05-05T18:33:40.898Z,100783.03
2023-05-05T18:36:11.453Z,100784.91
2023-05-05T18:38:41.728Z,100792.78
2023-05-05T18:41:10.911Z,100794.41
2023-05-05T18:43:39.735Z,100800.44
2023-05-05T18:46:08.942Z,100802.41
2023-05-05T18:48:37.850Z,100798.22
2023-05-05T18:51:07.490Z,100797.00
2023-05-05T18:53:36.334Z,100810.53
2023-05-05T18:56:06.627Z,100810.38
2023-05-05T18:58:35.525Z,100805.56
2023-05-05T19:01:04.391Z,100813.81
2023-05-05T19:03:33.792Z,100821.03
2023-05-05T19:06:06.262Z,100810.66
2023-05-05T19:08:35.268Z,100815.13
2023-05-05T19:11:05.487Z,100815.75
2023-05-05T19:13:34.465Z,100817.75
2023-05-05T19:16:03.626Z,100821.28
2023-05-05T19:18:32.877Z,100811.53
2023-05-05T19:21:01.844Z,100822.34
2023-05-05T19:23:30.973Z,100806.56
2023-05-05T19:25:59.797Z,100805.03
2023-05-05T19:28:30.051Z,100810.66
2023-05-05T19:30:59.055Z,100806.53
2023-05-05T19:33:27.956Z,100807.56
2023-05-05T19:35:56.830Z,100809.56
2023-05-05T19:38:25.719Z,100805.41
2023-05-05T19:40:55.226Z,100802.94
2023-05-05T19:43:24.024Z,100798.69
2023-05-05T19:45:54.328Z,100802.41
2023-05-05T19:48:23.325Z,100794.72
2023-05-05T19:50:52.926Z,100794.97
2023-05-05T19:53:21.686Z,100795.22
2023-05-05T19:55:50.651Z,100795.47
2023-05-05T19:58:19.355Z,100800.69
2023-05-05T20:00:48.133Z,100799.88
2023-05-05T20:03:18.462Z,100808.91
2023-05-05T20:05:47.283Z,100799.25
2023-05-05T20:08:16.028Z,100794.94
2023-05-05T20:10:44.878Z,100799.53
2023-05-05T20:13:13.761Z,100795.22
2023-05-05T20:15:42.622Z,100790.09
2023-05-05T20:18:11.331Z,100794.69
2023-05-05T20:20:41.521Z,100788.66
2023-05-05T20:23:10.276Z,100806.50
2023-05-05T20:25:39.040Z,100792.50
2023-05-05T20:28:07.831Z,100789.91
2023-05-05T20:30:36.660Z,100784.78
2023-05-05T20:33:05.724Z,100790.19
2023-05-05T20:35:34.551Z,100788.56
2023-05-05T20:38:04.832Z,100779.00
2023-05-05T20:40:34.418Z,100779.09
2023-05-05T20:43:03.300Z,100783.66
2023-05-05T20:45:34.684Z,100792.69
2023-05-05T20:48:04.584Z,100792.75
2023-05-05T20:50:33.850Z,100788.44
2023-05-05T20:53:05.312Z,100792.94
2023-05-05T20:55:34.187Z,100795.75
2023-05-05T20:58:03.462Z,100792.28
2023-05-05T21:00:32.213Z,100787.13
2023-05-05T21:03:02.597Z,100779.34
2023-05-05T21:05:32.243Z,100767.94
2023-05-05T21:08:01.440Z,100767.19
2023-05-05T21:10:33.276Z,100763.06
2023-05-05T21:13:03.700Z,100761.53
2023-05-05T21:15:33.292Z,100760.97
2023-05-05T21:18:03.725Z,100770.16
2023-05-05T21:20:32.515Z,100771.31
2023-05-05T21:23:01.237Z,100774.97
2023-05-05T21:25:31.965Z,100769.72
2023-05-05T21:28:00.692Z,100763.59
2023-05-05T21:30:30.177Z,100764.50
2023-05-05T21:32:59.267Z,100758.50
2023-05-05T21:35:28.238Z,100758.66
2023-05-05T21:37:57.013Z,100754.53
2023-05-05T21:40:25.793Z,100766.41
2023-05-05T21:42:56.116Z,100763.06
2023-05-05T21:45:25.460Z,100767.59
2023-05-05T21:47:54.199Z,100773.03
2023-05-05T21:50:23.307Z,100771.38
2023-05-05T21:52:52.627Z,100775.78
2023-05-05T21:55:21.450Z,100779.38
2023-05-05T21:57:50.296Z,100783.00
2023-05-05T22:00:20.554Z,100780.38
2023-05-05T22:02:49.444Z,100789.28
2023-05-05T22:05:18.376Z,100792.84
2023-05-05T22:07:47.118Z,100791.09
2023-05-05T22:10:16.723Z,100787.63
2023-05-05T22:12:45.488Z,100783.22
2023-05-05T22:15:14.485Z,100788.69
2023-05-05T22:17:44.751Z,100781.75
2023-05-05T22:20:15.601Z,100784.50
2023-05-05T22:22:46.653Z,100784.69
2023-05-05T22:25:15.638Z,100791.03
2023-05-05T22:27:44.505Z,100771.59
2023-05-05T22:30:14.503Z,100786.69
2023-05-05T22:32:46.641Z,100772.56
2023-05-05T22:35:15.597Z,100782.44
2023-05-05T22:37:44.484Z,100778.94
2023-05-05T22:40:13.953Z,100777.22
2023-05-05T22:42:42.842Z,100779.00
2023-05-05T22:45:12.411Z,100775.63
2023-05-05T22:47:41.306Z,100771.25
2023-05-05T22:50:12.311Z,100766.06
2023-05-05T22:52:41.141Z,100768.03
2023-05-05T22:55:13.807Z,100774.44
2023-05-05T22:57:43.041Z,100765.66
2023-05-05T23:00:12.570Z,100758.63
2023-05-05T23:02:41.682Z,100761.34
2023-05-05T23:05:14.601Z,100762.34
2023-05-05T23:07:43.391Z,100768.63
2023-05-05T23:10:12.404Z,100769.53
2023-05-05T23:12:41.225Z,100769.66
2023-05-05T23:15:11.215Z,100768.81
2023-05-05T23:17:40.305Z,100782.25
2023-05-05T23:20:15.265Z,100769.97
2023-05-05T23:22:44.059Z,100774.56
2023-05-05T23:25:13.013Z,100775.59
2023-05-05T23:27:42.016Z,100769.78
2023-05-05T23:30:11.814Z,100767.25
2023-05-05T23:32:40.902Z,100759.44
2023-05-05T23:35:11.862Z,100770.28
2023-05-05T23:37:42.482Z,100780.28
2023-05-05T23:40:11.732Z,100776.94
2023-05-05T23:42:40.455Z,100778.88
2023-05-05T23:45:18.678Z,100781.63
2023-05-05T23:47:48.239Z,100778.28
2023-05-05T23:50:18.441Z,100784.50
2023-05-05T23:52:48.469Z,100789.94
2023-05-05T23:55:17.214Z,100791.00
2023-05-05T23:57:46.003Z,100791.97
